sensor_id;sensor_type;location;lat;lon;timestamp;temperature;humidity
11824;DHT22;5969;50.780;7.726;2023-06-26T04:37:26;17.30;99.90
11824;DHT22;5969;50.780;7.726;2023-06-26T04:39:52;17.30;99.90
11824;DHT22;5969;50.780;7.726;2023-06-26T04:42:19;17.50;99.90
11824;DHT22;5969;50.780;7.726;2023-06-26T04:44:47;17.50;99.90
11824;DHT22;5969;50.780;7.726;2023-06-26T04:47:14;17.60;99.90
11824;DHT22;5969;50.780;7.726;2023-06-26T04:49:41;17.60;99.90
11824;DHT22;5969;50.780;7.726;2023-06-26T04:52:11;17.60;99.90
11824;DHT22;5969;50.780;7.726;2023-06-26T04:54:40;17.70;99.90
11824;DHT22;5969;50.780;7.726;2023-06-26T04:57:08;17.60;99.90
11824;DHT22;5969;50.780;7.726;2023-06-26T04:59:37;17.60;99.90
11824;DHT22;5969;50.780;7.726;2023-06-26T05:02:04;17.60;99.90
11824;DHT22;5969;50.780;7.726;2023-06-26T05:04:38;17.70;99.90
11824;DHT22;5969;50.780;7.726;2023-06-26T05:07:07;17.70;99.90
11824;DHT22;5969;50.780;7.726;2023-06-26T05:09:34;17.90;99.90
11824;DHT22;5969;50.780;7.726;2023-06-26T05:12:03;18.10;99.90
11824;DHT22;5969;50.780;7.726;2023-06-26T05:14:30;18.20;99.90
11824;DHT22;5969;50.780;7.726;2023-06-26T05:16:57;18.30;99.90
11824;DHT22;5969;50.780;7.726;2023-06-26T05:19:23;18.50;99.90
11824;DHT22;5969;50.780;7.726;2023-06-26T05:21:51;18.50;99.90
11824;DHT22;5969;50.780;7.726;2023-06-26T05:24:19;18.60;99.90
11824;DHT22;5969;50.780;7.726;2023-06-26T05:26:47;18.80;99.90
11824;DHT22;5969;50.780;7.726;2023-06-26T05:29:15;18.80;99.90
11824;DHT22;5969;50.780;7.726;2023-06-26T05:31:44;18.90;99.90
11824;DHT22;5969;50.780;7.726;2023-06-26T05:34:13;18.90;99.90
11824;DHT22;5969;50.780;7.726;2023-06-26T05:36:41;19.00;99.90
11824;DHT22;5969;50.780;7.726;2023-06-26T05:39:09;19.10;99.90
11824;DHT22;5969;50.780;7.726;2023-06-26T05:41:36;19.20;99.90
11824;DHT22;5969;50.780;7.726;2023-06-26T05:44:03;19.20;99.90
11824;DHT22;5969;50.780;7.726;2023-06-26T05:46:31;19.40;99.90
11824;DHT22;5969;50.780;7.726;2023-06-26T05:48:58;19.60;99.90
11824;DHT22;5969;50.780;7.726;2023-06-26T05:51:27;19.60;99.90
11824;DHT22;5969;50.780;7.726;2023-06-26T05:53:54;19.70;99.90
11824;DHT22;5969;50.780;7.726;2023-06-26T05:56:21;19.90;99.90
11824;DHT22;5969;50.780;7.726;2023-06-26T05:58:49;20.00;99.90
11824;DHT22;5969;50.780;7.726;2023-06-26T06:01:16;20.00;99.90
11824;DHT22;5969;50.780;7.726;2023-06-26T06:03:44;20.20;99.90
11824;DHT22;5969;50.780;7.726;2023-06-26T06:06:11;20.10;99.90
11824;DHT22;5969;50.780;7.726;2023-06-26T06:08:38;20.20;99.90
11824;DHT22;5969;50.780;7.726;2023-06-26T06:11:05;20.40;99.90
11824;DHT22;5969;50.780;7.726;2023-06-26T06:13:31;20.60;99.90
11824;DHT22;5969;50.780;7.726;2023-06-26T06:15:58;20.50;99.90
11824;DHT22;5969;50.780;7.726;2023-06-26T06:18:25;20.50;99.90
11824;DHT22;5969;50.780;7.726;2023-06-26T06:20:53;20.60;99.90
11824;DHT22;5969;50.780;7.726;2023-06-26T06:23:19;20.50;99.90
11824;DHT22;5969;50.780;7.726;2023-06-26T06:25:47;20.70;99.90
11824;DHT22;5969;50.780;7.726;2023-06-26T06:28:14;20.80;99.90
11824;DHT22;5969;50.780;7.726;2023-06-26T06:30:42;21.00;99.90
11824;DHT22;5969;50.780;7.726;2023-06-26T06:33:08;21.20;99.90
11824;DHT22;5969;50.780;7.726;2023-06-26T06:35:35;21.40;99.90
11824;DHT22;5969;50.780;7.726;2023-06-26T06:38:03;21.40;99.90
11824;DHT22;5969;50.780;7.726;2023-06-26T06:40:30;21.40;99.90
11824;DHT22;5969;50.780;7.726;2023-06-26T06:42:57;21.40;99.90
11824;DHT22;5969;50.780;7.726;2023-06-26T06:45:23;21.60;99.90
11824;DHT22;5969;50.780;7.726;2023-06-26T06:47:50;21.70;99.90
11824;DHT22;5969;50.780;7.726;2023-06-26T06:50:17;21.70;99.90
11824;DHT22;5969;50.780;7.726;2023-06-26T06:52:44;21.60;99.90
11824;DHT22;5969;50.780;7.726;2023-06-26T06:55:12;21.50;99.90
11824;DHT22;5969;50.780;7.726;2023-06-26T06:57:39;21.50;99.90
11824;DHT22;5969;50.780;7.726;2023-06-26T07:00:08;21.30;99.90
11824;DHT22;5969;50.780;7.726;2023-06-26T07:02:35;21.10;99.90
11824;DHT22;5969;50.780;7.726;2023-06-26T07:05:02;20.90;99.90
11824;DHT22;5969;50.780;7.726;2023-06-26T07:07:31;20.90;99.90
11824;DHT22;5969;50.780;7.726;2023-06-26T07:09:59;21.00;99.90
11824;DHT22;5969;50.780;7.726;2023-06-26T07:12:27;21.10;99.90
11824;DHT22;5969;50.780;7.726;2023-06-26T07:14:54;21.20;99.90
11824;DHT22;5969;50.780;7.726;2023-06-26T07:17:21;21.20;99.90
11824;DHT22;5969;50.780;7.726;2023-06-26T07:19:48;21.20;99.90
11824;DHT22;5969;50.780;7.726;2023-06-26T07:22:15;21.30;99.90
11824;DHT22;5969;50.780;7.726;2023-06-26T07:24:44;21.20;99.90
11824;DHT22;5969;50.780;7.726;2023-06-26T07:27:11;21.30;99.90
11824;DHT22;5969;50.780;7.726;2023-06-26T07:29:39;21.40;99.90
11824;DHT22;5969;50.780;7.726;2023-06-26T07:32:06;21.60;99.90
11824;DHT22;5969;50.780;7.726;2023-06-26T07:34:33;21.60;99.90
11824;DHT22;5969;50.780;7.726;2023-06-26T07:37:00;21.70;99.90
11824;DHT22;5969;50.780;7.726;2023-06-26T07:39:27;21.90;99.90
11824;DHT22;5969;50.780;7.726;2023-06-26T07:41:53;22.30;99.90
11824;DHT22;5969;50.780;7.726;2023-06-26T07:44:21;22.50;99.90
11824;DHT22;5969;50.780;7.726;2023-06-26T07:46:49;22.40;99.90
11824;DHT22;5969;50.780;7.726;2023-06-26T07:49:16;22.50;99.90
11824;DHT22;5969;50.780;7.726;2023-06-26T07:51:43;22.60;99.90
11824;DHT22;5969;50.780;7.726;2023-06-26T07:54:09;22.20;99.90
11824;DHT22;5969;50.780;7.726;2023-06-26T07:56:52;22.10;99.90
11824;DHT22;5969;50.780;7.726;2023-06-26T07:59:19;22.10;99.90
11824;DHT22;5969;50.780;7.726;2023-06-26T08:01:48;22.00;99.90
11824;DHT22;5969;50.780;7.726;2023-06-26T08:04:15;22.00;99.90
11824;DHT22;5969;50.780;7.726;2023-06-26T08:06:42;22.00;99.90
11824;DHT22;5969;50.780;7.726;2023-06-26T08:09:09;22.00;99.90
11824;DHT22;5969;50.780;7.726;2023-06-26T08:11:36;21.90;99.90
11824;DHT22;5969;50.780;7.726;2023-06-26T08:14:03;21.70;99.90
11824;DHT22;5969;50.780;7.726;2023-06-26T08:16:30;21.80;99.90
11824;DHT22;5969;50.780;7.726;2023-06-26T08:18:58;21.60;99.90
11824;DHT22;5969;50.780;7.726;2023-06-26T08:21:24;21.40;99.90
11824;DHT22;5969;50.780;7.726;2023-06-26T08:23:51;21.40;99.90
11824;DHT22;5969;50.780;7.726;2023-06-26T08:26:18;21.50;99.90
11824;DHT22;5969;50.780;7.726;2023-06-26T08:28:44;21.50;99.90
11824;DHT22;5969;50.780;7.726;2023-06-26T08:31:11;21.50;99.90
11824;DHT22;5969;50.780;7.726;2023-06-26T08:33:38;21.80;99.90
11824;DHT22;5969;50.780;7.726;2023-06-26T08:36:06;21.80;99.90
11824;DHT22;5969;50.780;7.726;2023-06-26T08:38:33;22.10;99.90
11824;DHT22;5969;50.780;7.726;2023-06-26T08:41:00;22.30;99.90
11824;DHT22;5969;50.780;7.726;2023-06-26T08:43:26;22.40;99.90
11824;DHT22;5969;50.780;7.726;2023-06-26T08:45:54;22.30;99.90
11824;DHT22;5969;50.780;7.726;2023-06-26T08:48:21;22.10;99.90
11824;DHT22;5969;50.780;7.726;2023-06-26T08:50:49;21.90;99.90
11824;DHT22;5969;50.780;7.726;2023-06-26T08:53:23;21.80;99.90
11824;DHT22;5969;50.780;7.726;2023-06-26T08:55:53;22.00;99.90
11824;DHT22;5969;50.780;7.726;2023-06-26T08:58:21;22.10;99.90
11824;DHT22;5969;50.780;7.726;2023-06-26T09:00:47;22.30;99.90
11824;DHT22;5969;50.780;7.726;2023-06-26T09:03:15;22.50;99.90
11824;DHT22;5969;50.780;7.726;2023-06-26T09:05:42;22.70;99.90
11824;DHT22;5969;50.780;7.726;2023-06-26T09:08:09;22.90;99.90
11824;DHT22;5969;50.780;7.726;2023-06-26T09:10:37;22.80;99.90
11824;DHT22;5969;50.780;7.726;2023-06-26T09:13:04;22.70;99.90
11824;DHT22;5969;50.780;7.726;2023-06-26T09:15:37;22.70;99.90
11824;DHT22;5969;50.780;7.726;2023-06-26T09:18:05;22.50;99.90
11824;DHT22;5969;50.780;7.726;2023-06-26T09:20:31;22.70;99.90
11824;DHT22;5969;50.780;7.726;2023-06-26T09:23:00;22.80;99.90
11824;DHT22;5969;50.780;7.726;2023-06-26T09:25:28;23.00;99.90
11824;DHT22;5969;50.780;7.726;2023-06-26T09:27:56;23.20;99.90
11824;DHT22;5969;50.780;7.726;2023-06-26T09:30:23;23.10;99.90
11824;DHT22;5969;50.780;7.726;2023-06-26T09:32:50;23.10;99.90
11824;DHT22;5969;50.780;7.726;2023-06-26T09:35:16;23.40;99.90
11824;DHT22;5969;50.780;7.726;2023-06-26T09:37:43;23.60;99.90
11824;DHT22;5969;50.780;7.726;2023-06-26T09:40:11;23.50;99.90
11824;DHT22;5969;50.780;7.726;2023-06-26T09:42:37;23.30;99.90
11824;DHT22;5969;50.780;7.726;2023-06-26T09:45:06;23.60;99.90
11824;DHT22;5969;50.780;7.726;2023-06-26T09:47:34;23.30;99.90
11824;DHT22;5969;50.780;7.726;2023-06-26T09:50:05;23.00;99.90
11824;DHT22;5969;50.780;7.726;2023-06-26T09:52:32;23.00;99.90
11824;DHT22;5969;50.780;7.726;2023-06-26T09:55:10;22.90;99.90
11824;DHT22;5969;50.780;7.726;2023-06-26T09:57:38;23.10;99.90
11824;DHT22;5969;50.780;7.726;2023-06-26T10:00:08;23.40;99.90
11824;DHT22;5969;50.780;7.726;2023-06-26T10:02:35;23.30;99.90
11824;DHT22;5969;50.780;7.726;2023-06-26T10:05:02;23.30;99.90
11824;DHT22;5969;50.780;7.726;2023-06-26T10:07:29;23.00;99.90
11824;DHT22;5969;50.780;7.726;2023-06-26T10:09:56;23.00;99.90
11824;DHT22;5969;50.780;7.726;2023-06-26T10:12:28;23.10;99.90
11824;DHT22;5969;50.780;7.726;2023-06-26T10:14:56;23.40;99.90
11824;DHT22;5969;50.780;7.726;2023-06-26T10:17:27;24.00;99.90
11824;DHT22;5969;50.780;7.726;2023-06-26T10:19:55;23.70;99.90
11824;DHT22;5969;50.780;7.726;2023-06-26T10:22:28;23.60;99.90
11824;DHT22;5969;50.780;7.726;2023-06-26T10:24:58;23.20;99.90
11824;DHT22;5969;50.780;7.726;2023-06-26T10:27:27;23.10;99.90
11824;DHT22;5969;50.780;7.726;2023-06-26T10:29:56;23.40;99.90
11824;DHT22;5969;50.780;7.726;2023-06-26T10:32:26;23.80;99.90
11824;DHT22;5969;50.780;7.726;2023-06-26T10:34:55;23.90;99.90
11824;DHT22;5969;50.780;7.726;2023-06-26T10:37:40;24.00;99.90
11824;DHT22;5969;50.780;7.726;2023-06-26T10:40:08;23.90;99.90
11824;DHT22;5969;50.780;7.726;2023-06-26T10:42:36;23.80;99.90
11824;DHT22;5969;50.780;7.726;2023-06-26T10:45:09;23.70;99.90
11824;DHT22;5969;50.780;7.726;2023-06-26T10:47:40;23.30;99.90
11824;DHT22;5969;50.780;7.726;2023-06-26T10:50:19;23.70;99.90
11824;DHT22;5969;50.780;7.726;2023-06-26T10:53:07;24.00;99.90
11824;DHT22;5969;50.780;7.726;2023-06-26T10:55:34;24.20;99.90
11824;DHT22;5969;50.780;7.726;2023-06-26T10:58:01;24.10;99.90
11824;DHT22;5969;50.780;7.726;2023-06-26T11:00:28;23.90;99.90
11824;DHT22;5969;50.780;7.726;2023-06-26T11:02:56;24.00;99.90
11824;DHT22;5969;50.780;7.726;2023-06-26T11:05:24;24.00;99.90
11824;DHT22;5969;50.780;7.726;2023-06-26T11:08:06;24.00;99.90
11824;DHT22;5969;50.780;7.726;2023-06-26T11:10:49;24.10;99.90
11824;DHT22;5969;50.780;7.726;2023-06-26T11:13:17;24.40;99.90
11824;DHT22;5969;50.780;7.726;2023-06-26T11:15:45;24.50;99.90
11824;DHT22;5969;50.780;7.726;2023-06-26T11:18:13;24.20;99.90
11824;DHT22;5969;50.780;7.726;2023-06-26T11:20:40;24.10;99.90
11824;DHT22;5969;50.780;7.726;2023-06-26T11:23:08;24.00;99.20
11824;DHT22;5969;50.780;7.726;2023-06-26T11:25:35;23.90;99.60
11824;DHT22;5969;50.780;7.726;2023-06-26T11:28:03;23.70;99.20
11824;DHT22;5969;50.780;7.726;2023-06-26T11:30:31;23.60;99.30
11824;DHT22;5969;50.780;7.726;2023-06-26T11:33:05;23.80;99.90
11824;DHT22;5969;50.780;7.726;2023-06-26T11:35:33;24.00;99.90
11824;DHT22;5969;50.780;7.726;2023-06-26T11:38:01;23.80;99.90
11824;DHT22;5969;50.780;7.726;2023-06-26T11:40:30;23.80;98.20
11824;DHT22;5969;50.780;7.726;2023-06-26T11:42:58;23.90;98.60
11824;DHT22;5969;50.780;7.726;2023-06-26T11:45:25;24.50;99.60
11824;DHT22;5969;50.780;7.726;2023-06-26T11:47:54;24.70;97.70
11824;DHT22;5969;50.780;7.726;2023-06-26T11:50:21;24.90;98.50
11824;DHT22;5969;50.780;7.726;2023-06-26T11:52:54;24.60;98.30
11824;DHT22;5969;50.780;7.726;2023-06-26T11:55:21;24.70;98.50
11824;DHT22;5969;50.780;7.726;2023-06-26T11:57:48;24.20;98.10
11824;DHT22;5969;50.780;7.726;2023-06-26T12:00:16;24.30;98.80
11824;DHT22;5969;50.780;7.726;2023-06-26T12:02:44;24.30;98.40
11824;DHT22;5969;50.780;7.726;2023-06-26T12:05:11;24.10;98.10
11824;DHT22;5969;50.780;7.726;2023-06-26T12:07:39;24.30;97.60
11824;DHT22;5969;50.780;7.726;2023-06-26T12:10:09;24.40;97.80
11824;DHT22;5969;50.780;7.726;2023-06-26T12:12:37;24.20;97.70
11824;DHT22;5969;50.780;7.726;2023-06-26T12:15:06;24.20;95.90
11824;DHT22;5969;50.780;7.726;2023-06-26T12:17:33;24.30;96.70
11824;DHT22;5969;50.780;7.726;2023-06-26T12:20:00;24.20;97.10
11824;DHT22;5969;50.780;7.726;2023-06-26T12:22:34;24.50;97.20
11824;DHT22;5969;50.780;7.726;2023-06-26T12:25:01;24.90;97.40
11824;DHT22;5969;50.780;7.726;2023-06-26T12:27:29;25.10;96.30
11824;DHT22;5969;50.780;7.726;2023-06-26T12:29:57;25.30;97.00
11824;DHT22;5969;50.780;7.726;2023-06-26T12:32:24;25.20;95.10
11824;DHT22;5969;50.780;7.726;2023-06-26T12:34:51;24.70;94.20
11824;DHT22;5969;50.780;7.726;2023-06-26T12:37:18;24.80;96.00
11824;DHT22;5969;50.780;7.726;2023-06-26T12:39:46;25.10;95.80
11824;DHT22;5969;50.780;7.726;2023-06-26T12:42:14;24.50;94.80
11824;DHT22;5969;50.780;7.726;2023-06-26T12:44:42;24.80;94.70
11824;DHT22;5969;50.780;7.726;2023-06-26T12:47:09;24.90;95.00
11824;DHT22;5969;50.780;7.726;2023-06-26T12:49:39;24.70;95.30
11824;DHT22;5969;50.780;7.726;2023-06-26T12:52:07;24.50;94.80
11824;DHT22;5969;50.780;7.726;2023-06-26T12:54:35;24.50;95.80
11824;DHT22;5969;50.780;7.726;2023-06-26T12:57:02;25.10;95.40
11824;DHT22;5969;50.780;7.726;2023-06-26T12:59:29;25.20;95.40
11824;DHT22;5969;50.780;7.726;2023-06-26T13:01:58;25.30;95.60
11824;DHT22;5969;50.780;7.726;2023-06-26T13:04:24;25.50;95.30
11824;DHT22;5969;50.780;7.726;2023-06-26T13:06:51;24.90;94.10
11824;DHT22;5969;50.780;7.726;2023-06-26T13:09:20;24.90;95.30
11824;DHT22;5969;50.780;7.726;2023-06-26T13:11:48;24.90;94.70
11824;DHT22;5969;50.780;7.726;2023-06-26T13:14:15;24.60;95.20
11824;DHT22;5969;50.780;7.726;2023-06-26T13:16:42;24.50;95.40
11824;DHT22;5969;50.780;7.726;2023-06-26T13:19:10;25.10;95.60
11824;DHT22;5969;50.780;7.726;2023-06-26T13:21:37;25.10;94.80
11824;DHT22;5969;50.780;7.726;2023-06-26T13:24:04;24.40;95.00
11824;DHT22;5969;50.780;7.726;2023-06-26T13:26:32;24.20;95.30
11824;DHT22;5969;50.780;7.726;2023-06-26T13:29:01;24.40;95.60
11824;DHT22;5969;50.780;7.726;2023-06-26T13:31:30;24.90;95.00
11824;DHT22;5969;50.780;7.726;2023-06-26T13:33:57;25.20;94.30
11824;DHT22;5969;50.780;7.726;2023-06-26T13:36:26;25.50;94.10
11824;DHT22;5969;50.780;7.726;2023-06-26T13:38:53;25.50;94.30
11824;DHT22;5969;50.780;7.726;2023-06-26T13:41:22;26.00;93.70
11824;DHT22;5969;50.780;7.726;2023-06-26T13:43:49;26.30;94.10
11824;DHT22;5969;50.780;7.726;2023-06-26T13:46:16;26.40;93.80
11824;DHT22;5969;50.780;7.726;2023-06-26T13:48:43;26.00;93.90
11824;DHT22;5969;50.780;7.726;2023-06-26T13:51:10;25.50;93.40
11824;DHT22;5969;50.780;7.726;2023-06-26T13:53:38;26.20;93.70
11824;DHT22;5969;50.780;7.726;2023-06-26T13:56:04;27.10;92.00
11824;DHT22;5969;50.780;7.726;2023-06-26T13:58:31;27.20;93.00
11824;DHT22;5969;50.780;7.726;2023-06-26T14:00:59;26.80;91.50
11824;DHT22;5969;50.780;7.726;2023-06-26T14:03:26;26.20;92.00
11824;DHT22;5969;50.780;7.726;2023-06-26T14:05:53;26.00;91.80
11824;DHT22;5969;50.780;7.726;2023-06-26T14:08:20;26.60;92.20
11824;DHT22;5969;50.780;7.726;2023-06-26T14:10:49;28.10;89.10
11824;DHT22;5969;50.780;7.726;2023-06-26T14:13:15;28.80;86.90
11824;DHT22;5969;50.780;7.726;2023-06-26T14:15:42;29.70;87.40
11824;DHT22;5969;50.780;7.726;2023-06-26T14:18:09;30.20;86.70
11824;DHT22;5969;50.780;7.726;2023-06-26T14:20:36;28.40;88.90
11824;DHT22;5969;50.780;7.726;2023-06-26T14:23:03;26.30;90.70
11824;DHT22;5969;50.780;7.726;2023-06-26T14:25:29;26.20;91.00
11824;DHT22;5969;50.780;7.726;2023-06-26T14:27:58;26.80;90.70
11824;DHT22;5969;50.780;7.726;2023-06-26T14:30:25;26.20;90.90
11824;DHT22;5969;50.780;7.726;2023-06-26T14:32:52;27.20;90.80
11824;DHT22;5969;50.780;7.726;2023-06-26T14:35:18;27.80;90.50
11824;DHT22;5969;50.780;7.726;2023-06-26T14:37:45;29.10;90.00
11824;DHT22;5969;50.780;7.726;2023-06-26T14:40:12;29.70;87.40
11824;DHT22;5969;50.780;7.726;2023-06-26T14:42:39;30.20;85.50
11824;DHT22;5969;50.780;7.726;2023-06-26T14:45:10;28.40;87.10
11824;DHT22;5969;50.780;7.726;2023-06-26T14:47:37;28.70;86.70
11824;DHT22;5969;50.780;7.726;2023-06-26T14:50:05;29.10;88.80
11824;DHT22;5969;50.780;7.726;2023-06-26T14:52:31;28.80;86.50
11824;DHT22;5969;50.780;7.726;2023-06-26T14:54:58;28.20;87.50
11824;DHT22;5969;50.780;7.726;2023-06-26T14:57:25;26.50;89.60
11824;DHT22;5969;50.780;7.726;2023-06-26T14:59:52;27.80;90.60
11824;DHT22;5969;50.780;7.726;2023-06-26T15:02:20;29.10;90.20
11824;DHT22;5969;50.780;7.726;2023-06-26T15:04:46;28.40;85.30
11824;DHT22;5969;50.780;7.726;2023-06-26T15:07:13;29.40;87.10
11824;DHT22;5969;50.780;7.726;2023-06-26T15:09:40;29.20;86.40
11824;DHT22;5969;50.780;7.726;2023-06-26T15:12:07;28.60;84.30
11824;DHT22;5969;50.780;7.726;2023-06-26T15:14:34;28.10;85.50
11824;DHT22;5969;50.780;7.726;2023-06-26T15:17:01;28.80;84.00
11824;DHT22;5969;50.780;7.726;2023-06-26T15:19:29;29.10;85.10
11824;DHT22;5969;50.780;7.726;2023-06-26T15:21:56;29.10;84.40
11824;DHT22;5969;50.780;7.726;2023-06-26T15:24:22;30.20;82.00
11824;DHT22;5969;50.780;7.726;2023-06-26T15:26:49;30.80;83.90
11824;DHT22;5969;50.780;7.726;2023-06-26T15:29:16;30.60;81.10
11824;DHT22;5969;50.780;7.726;2023-06-26T15:31:43;30.40;82.20
11824;DHT22;5969;50.780;7.726;2023-06-26T15:34:10;28.10;83.20
11824;DHT22;5969;50.780;7.726;2023-06-26T15:36:39;27.50;83.10
11824;DHT22;5969;50.780;7.726;2023-06-26T15:39:06;27.10;84.70
11824;DHT22;5969;50.780;7.726;2023-06-26T15:41:33;27.30;83.80
11824;DHT22;5969;50.780;7.726;2023-06-26T15:44:02;27.50;84.60
11824;DHT22;5969;50.780;7.726;2023-06-26T15:46:29;27.10;83.10
11824;DHT22;5969;50.780;7.726;2023-06-26T15:48:56;26.40;84.00
11824;DHT22;5969;50.780;7.726;2023-06-26T15:51:22;26.40;86.90
11824;DHT22;5969;50.780;7.726;2023-06-26T15:53:50;27.00;84.20
11824;DHT22;5969;50.780;7.726;2023-06-26T15:56:18;27.20;82.30
11824;DHT22;5969;50.780;7.726;2023-06-26T15:58:45;26.60;82.00
11824;DHT22;5969;50.780;7.726;2023-06-26T16:01:13;25.40;82.60
11824;DHT22;5969;50.780;7.726;2023-06-26T16:03:41;24.80;84.30
11824;DHT22;5969;50.780;7.726;2023-06-26T16:06:08;25.30;84.80
11824;DHT22;5969;50.780;7.726;2023-06-26T16:08:35;26.40;82.80
11824;DHT22;5969;50.780;7.726;2023-06-26T16:11:04;26.40;81.40
11824;DHT22;5969;50.780;7.726;2023-06-26T16:13:31;26.20;82.90
11824;DHT22;5969;50.780;7.726;2023-06-26T16:15:58;25.70;84.00
11824;DHT22;5969;50.780;7.726;2023-06-26T16:18:25;25.90;85.40
11824;DHT22;5969;50.780;7.726;2023-06-26T16:20:51;26.80;84.40
11824;DHT22;5969;50.780;7.726;2023-06-26T16:23:18;27.50;82.20
11824;DHT22;5969;50.780;7.726;2023-06-26T16:25:45;27.90;82.20
11824;DHT22;5969;50.780;7.726;2023-06-26T16:28:13;28.40;83.30
11824;DHT22;5969;50.780;7.726;2023-06-26T16:30:40;28.80;80.00
11824;DHT22;5969;50.780;7.726;2023-06-26T16:33:07;28.60;81.50
11824;DHT22;5969;50.780;7.726;2023-06-26T16:35:34;28.20;80.40
11824;DHT22;5969;50.780;7.726;2023-06-26T16:38:03;28.60;82.00
11824;DHT22;5969;50.780;7.726;2023-06-26T16:40:31;28.20;82.20
11824;DHT22;5969;50.780;7.726;2023-06-26T16:42:58;26.90;82.80
11824;DHT22;5969;50.780;7.726;2023-06-26T16:45:26;26.30;83.70
11824;DHT22;5969;50.780;7.726;2023-06-26T16:47:53;26.20;83.70
11824;DHT22;5969;50.780;7.726;2023-06-26T16:50:20;26.20;83.20
11824;DHT22;5969;50.780;7.726;2023-06-26T16:52:47;25.70;85.30
11824;DHT22;5969;50.780;7.726;2023-06-26T16:55:14;25.00;84.90
11824;DHT22;5969;50.780;7.726;2023-06-26T16:57:41;24.30;85.80
11824;DHT22;5969;50.780;7.726;2023-06-26T17:00:10;24.40;85.00
11824;DHT22;5969;50.780;7.726;2023-06-26T17:02:38;24.60;85.90
11824;DHT22;5969;50.780;7.726;2023-06-26T17:05:05;25.20;84.90
11824;DHT22;5969;50.780;7.726;2023-06-26T17:07:33;25.40;85.20
11824;DHT22;5969;50.780;7.726;2023-06-26T17:10:00;25.50;85.30
11824;DHT22;5969;50.780;7.726;2023-06-26T17:12:27;25.70;86.40
11824;DHT22;5969;50.780;7.726;2023-06-26T17:14:53;25.70;85.30
11824;DHT22;5969;50.780;7.726;2023-06-26T17:17:20;25.10;85.10
11824;DHT22;5969;50.780;7.726;2023-06-26T17:19:49;24.50;86.20
11824;DHT22;5969;50.780;7.726;2023-06-26T17:22:16;24.30;87.40
11824;DHT22;5969;50.780;7.726;2023-06-26T17:24:43;24.10;87.40
11824;DHT22;5969;50.780;7.726;2023-06-26T17:27:10;23.80;87.00
11824;DHT22;5969;50.780;7.726;2023-06-26T17:29:37;23.40;88.20
11824;DHT22;5969;50.780;7.726;2023-06-26T17:32:05;23.20;88.80
11824;DHT22;5969;50.780;7.726;2023-06-26T17:34:32;23.20;88.90
11824;DHT22;5969;50.780;7.726;2023-06-26T17:37:01;23.00;89.40
11824;DHT22;5969;50.780;7.726;2023-06-26T17:39:27;22.70;89.10
11824;DHT22;5969;50.780;7.726;2023-06-26T17:41:54;22.60;89.90
11824;DHT22;5969;50.780;7.726;2023-06-26T17:44:21;22.80;90.00
11824;DHT22;5969;50.780;7.726;2023-06-26T17:46:52;22.80;88.80
11824;DHT22;5969;50.780;7.726;2023-06-26T17:49:19;22.70;88.00
11824;DHT22;5969;50.780;7.726;2023-06-26T17:51:46;22.60;89.10
11824;DHT22;5969;50.780;7.726;2023-06-26T17:54:15;22.60;89.10
11824;DHT22;5969;50.780;7.726;2023-06-26T17:56:42;22.50;89.20
11824;DHT22;5969;50.780;7.726;2023-06-26T17:59:11;22.30;89.90
11824;DHT22;5969;50.780;7.726;2023-06-26T18:01:39;22.40;89.20
11824;DHT22;5969;50.780;7.726;2023-06-26T18:04:06;22.40;89.90
11824;DHT22;5969;50.780;7.726;2023-06-26T18:06:33;22.50;90.10
11824;DHT22;5969;50.780;7.726;2023-06-26T18:09:00;22.30;89.50
11824;DHT22;5969;50.780;7.726;2023-06-26T18:11:30;22.10;90.10
11824;DHT22;5969;50.780;7.726;2023-06-26T18:13:57;22.20;90.00
11824;DHT22;5969;50.780;7.726;2023-06-26T18:16:25;22.00;89.80
11824;DHT22;5969;50.780;7.726;2023-06-26T18:18:52;21.80;88.80
11824;DHT22;5969;50.780;7.726;2023-06-26T18:21:19;21.90;88.90
11824;DHT22;5969;50.780;7.726;2023-06-26T18:23:46;21.80;89.70
11824;DHT22;5969;50.780;7.726;2023-06-26T18:26:14;21.50;90.50
11824;DHT22;5969;50.780;7.726;2023-06-26T18:28:46;21.50;89.40
11824;DHT22;5969;50.780;7.726;2023-06-26T18:31:17;21.50;89.60
11824;DHT22;5969;50.780;7.726;2023-06-26T18:33:52;21.30;89.40
11824;DHT22;5969;50.780;7.726;2023-06-26T18:36:20;21.30;89.70
11824;DHT22;5969;50.780;7.726;2023-06-26T18:38:46;21.10;90.30
11824;DHT22;5969;50.780;7.726;2023-06-26T18:41:13;21.00;90.30
11824;DHT22;5969;50.780;7.726;2023-06-26T18:43:41;21.10;90.60
11824;DHT22;5969;50.780;7.726;2023-06-26T18:46:11;21.10;90.60
11824;DHT22;5969;50.780;7.726;2023-06-26T18:48:38;21.10;90.00
11824;DHT22;5969;50.780;7.726;2023-06-26T18:51:05;20.90;90.20
11824;DHT22;5969;50.780;7.726;2023-06-26T18:53:32;20.70;90.40
11824;DHT22;5969;50.780;7.726;2023-06-26T18:55:59;20.70;89.80
11824;DHT22;5969;50.780;7.726;2023-06-26T18:58:25;20.90;90.50
11824;DHT22;5969;50.780;7.726;2023-06-26T19:00:52;20.90;90.10
11824;DHT22;5969;50.780;7.726;2023-06-26T19:03:20;20.90;90.10
11824;DHT22;5969;50.780;7.726;2023-06-26T19:05:47;20.90;90.80
11824;DHT22;5969;50.780;7.726;2023-06-26T19:08:14;20.70;90.10
11824;DHT22;5969;50.780;7.726;2023-06-26T19:10:40;20.70;90.40
11824;DHT22;5969;50.780;7.726;2023-06-26T19:13:07;20.50;90.40
11824;DHT22;5969;50.780;7.726;2023-06-26T19:15:34;20.50;90.90
11824;DHT22;5969;50.780;7.726;2023-06-26T19:18:01;20.50;90.60
11824;DHT22;5969;50.780;7.726;2023-06-26T19:20:29;20.40;90.40
11824;DHT22;5969;50.780;7.726;2023-06-26T19:22:56;20.30;90.80
11824;DHT22;5969;50.780;7.726;2023-06-26T19:25:22;20.10;91.10
11824;DHT22;5969;50.780;7.726;2023-06-26T19:27:49;20.20;90.90
11824;DHT22;5969;50.780;7.726;2023-06-26T19:30:16;20.00;90.90
11824;DHT22;5969;50.780;7.726;2023-06-26T19:32:43;19.90;91.20
11824;DHT22;5969;50.780;7.726;2023-06-26T19:35:10;19.90;91.50
11824;DHT22;5969;50.780;7.726;2023-06-26T19:37:39;19.90;91.00
11824;DHT22;5969;50.780;7.726;2023-06-26T19:40:07;20.00;91.30
11824;DHT22;5969;50.780;7.726;2023-06-26T19:43:01;20.00;91.10
11824;DHT22;5969;50.780;7.726;2023-06-26T19:45:28;20.00;91.50
11824;DHT22;5969;50.780;7.726;2023-06-26T19:47:55;19.80;91.20
11824;DHT22;5969;50.780;7.726;2023-06-26T19:50:24;19.70;91.60
11824;DHT22;5969;50.780;7.726;2023-06-26T19:52:56;19.70;91.90
11824;DHT22;5969;50.780;7.726;2023-06-26T19:55:24;19.60;91.60
11824;DHT22;5969;50.780;7.726;2023-06-26T19:57:51;19.60;92.10
11824;DHT22;5969;50.780;7.726;2023-06-26T20:00:18;19.50;92.20
11824;DHT22;5969;50.780;7.726;2023-06-26T20:02:45;19.40;91.80
11824;DHT22;5969;50.780;7.726;2023-06-26T20:05:13;19.40;91.90
11824;DHT22;5969;50.780;7.726;2023-06-26T20:07:40;19.20;92.00
11824;DHT22;5969;50.780;7.726;2023-06-26T20:10:08;19.10;91.90
11824;DHT22;5969;50.780;7.726;2023-06-26T20:12:35;19.10;92.00
11824;DHT22;5969;50.780;7.726;2023-06-26T20:15:02;19.10;91.80
11824;DHT22;5969;50.780;7.726;2023-06-26T20:17:30;19.00;92.20
11824;DHT22;5969;50.780;7.726;2023-06-26T20:19:57;18.90;92.30
11824;DHT22;5969;50.780;7.726;2023-06-26T20:22:23;18.80;92.20
11824;DHT22;5969;50.780;7.726;2023-06-26T20:24:51;18.80;92.10